Time;durP1;ratioP1;P1;durP2;ratioP2;P2;SDS_P1;SDS_P2;PMS_P1;PMS_P2;Temp;Humidity;BMP_temperature;BMP_pressure;BME280_temperature;BME280_humidity;BME280_pressure;Samples;Min_cycle;Max_cycle;Signal;HPM_P1;HPM_P2
2022/08/17 00:00:27;;;;;;;473.90;266.00;;;;;;;;;;4960348;28;20206;-54
2022/08/17 00:03:00;;;;;;;439.58;252.35;;;;;;;;;;4965392;28;20674;-54
2022/08/17 00:05:27;;;;;;;423.42;246.45;;;;;;;;;;4965379;28;20698;-54
2022/08/17 00:07:53;;;;;;;434.05;251.75;;;;;;;;;;4970360;28;20229;-53
2022/08/17 00:10:19;;;;;;;426.92;248.02;;;;;;;;;;4970663;28;20206;-53
2022/08/17 00:12:45;;;;;;;446.40;254.18;;;;;;;;;;4972476;28;20214;-53
2022/08/17 00:15:12;;;;;;;486.00;278.38;;;;;;;;;;4963576;28;20194;-52
2022/08/17 00:17:38;;;;;;;411.98;238.10;;;;;;;;;;4966973;28;20214;-52
2022/08/17 00:20:04;;;;;;;463.55;268.60;;;;;;;;;;4966465;28;20593;-53
2022/08/17 00:22:30;;;;;;;425.92;249.52;;;;;;;;;;4977700;28;20582;-53
2022/08/17 00:24:56;;;;;;;449.63;261.35;;;;;;;;;;4967293;28;20214;-53
2022/08/17 00:27:22;;;;;;;420.67;245.30;;;;;;;;;;4967698;28;20216;-53
2022/08/17 00:29:48;;;;;;;395.33;233.85;;;;;;;;;;4970852;28;20170;-53
2022/08/17 00:32:14;;;;;;;395.63;224.45;;;;;;;;;;4971057;28;20243;-52
2022/08/17 00:34:40;;;;;;;397.15;231.85;;;;;;;;;;4968387;28;20504;-52
2022/08/17 00:37:06;;;;;;;395.63;232.25;;;;;;;;;;4971669;28;20333;-53
2022/08/17 00:39:32;;;;;;;434.45;247.48;;;;;;;;;;4968453;28;20310;-53
2022/08/17 00:41:58;;;;;;;422.05;245.77;;;;;;;;;;4964118;28;20803;-53
2022/08/17 00:44:23;;;;;;;444.92;256.95;;;;;;;;;;4970044;28;20879;-53
2022/08/17 00:46:50;;;;;;;412.92;236.35;;;;;;;;;;4971405;28;20225;-53
2022/08/17 00:49:18;;;;;;;460.10;256.02;;;;;;;;;;4966846;28;20349;-53
2022/08/17 00:51:44;;;;;;;444.45;251.02;;;;;;;;;;4972358;28;20218;-53
2022/08/17 00:54:30;;;;;;;418.02;237.07;;;;;;;;;;4974498;28;20596;-53
2022/08/17 00:56:58;;;;;;;407.55;232.95;;;;;;;;;;4966300;28;20248;-53
2022/08/17 00:59:25;;;;;;;454.42;254.05;;;;;;;;;;4968966;28;20214;-53
2022/08/17 01:01:51;;;;;;;463.80;258.90;;;;;;;;;;4969801;28;20213;-53
2022/08/17 01:04:19;;;;;;;475.08;260.42;;;;;;;;;;4964979;28;20233;-52
2022/08/17 01:06:48;;;;;;;384.45;222.73;;;;;;;;;;4968296;28;20229;-53
2022/08/17 01:09:14;;;;;;;440.42;248.80;;;;;;;;;;4967442;28;20228;-53
2022/08/17 01:11:40;;;;;;;403.70;229.07;;;;;;;;;;4968359;28;20301;-53
2022/08/17 01:14:07;;;;;;;411.92;234.23;;;;;;;;;;4971490;28;20320;-52
2022/08/17 01:16:34;;;;;;;448.95;250.80;;;;;;;;;;4963320;28;20341;-53
2022/08/17 01:19:01;;;;;;;396.90;226.27;;;;;;;;;;4972105;28;20209;-53
2022/08/17 01:21:42;;;;;;;406.90;222.15;;;;;;;;;;4969820;28;20546;-53
2022/08/17 01:24:08;;;;;;;440.75;245.98;;;;;;;;;;4967401;28;20379;-53
2022/08/17 01:26:35;;;;;;;432.23;244.73;;;;;;;;;;4969294;28;20226;-53
2022/08/17 01:29:02;;;;;;;436.33;250.70;;;;;;;;;;4967498;28;20218;-53
2022/08/17 01:31:31;;;;;;;484.17;272.60;;;;;;;;;;4969526;28;20586;-54
2022/08/17 01:33:58;;;;;;;420.10;234.63;;;;;;;;;;4969830;28;20214;-53
2022/08/17 01:36:24;;;;;;;455.08;248.93;;;;;;;;;;4964965;28;20217;-53
2022/08/17 01:38:50;;;;;;;399.05;217.27;;;;;;;;;;4972153;28;20260;-53
2022/08/17 01:41:16;;;;;;;464.38;254.43;;;;;;;;;;4962594;28;20886;-53
2022/08/17 01:43:44;;;;;;;436.88;240.70;;;;;;;;;;4967374;28;20222;-53
2022/08/17 01:46:14;;;;;;;407.63;228.65;;;;;;;;;;4972544;28;20612;-53
2022/08/17 01:48:41;;;;;;;417.35;233.73;;;;;;;;;;4974040;28;20233;-53
2022/08/17 01:51:07;;;;;;;432.00;242.45;;;;;;;;;;4971519;28;20190;-53
2022/08/17 01:53:38;;;;;;;443.45;235.45;;;;;;;;;;4970192;28;20292;-53
2022/08/17 01:56:16;;;;;;;440.70;238.50;;;;;;;;;;4963523;28;20321;-53
2022/08/17 01:58:43;;;;;;;442.27;239.68;;;;;;;;;;4966099;28;20221;-53
2022/08/17 02:01:09;;;;;;;399.13;222.95;;;;;;;;;;4971615;28;20209;-53
2022/08/17 02:03:36;;;;;;;444.88;241.35;;;;;;;;;;4967007;28;20856;-53
2022/08/17 02:06:02;;;;;;;383.25;219.30;;;;;;;;;;4969824;28;20233;-53
2022/08/17 02:08:31;;;;;;;463.98;255.57;;;;;;;;;;4969184;28;20217;-53
2022/08/17 02:10:57;;;;;;;428.02;239.88;;;;;;;;;;4966073;28;20264;-53
2022/08/17 02:13:23;;;;;;;436.00;245.13;;;;;;;;;;4971111;28;20261;-53
2022/08/17 02:15:48;;;;;;;388.85;224.98;;;;;;;;;;4968066;28;20408;-53
2022/08/17 02:18:15;;;;;;;405.95;226.40;;;;;;;;;;4972651;28;20201;-53
2022/08/17 02:20:41;;;;;;;359.52;227.85;;;;;;;;;;4993597;23;20423;-52
2022/08/17 02:23:08;;;;;;;393.98;244.82;;;;;;;;;;5001908;28;20649;-52
2022/08/17 02:25:35;;;;;;;404.63;241.23;;;;;;;;;;5001809;28;20209;-49
2022/08/17 02:28:00;;;;;;;417.90;252.90;;;;;;;;;;4998309;28;20232;-49
2022/08/17 02:30:27;;;;;;;383.77;231.40;;;;;;;;;;5000949;28;20184;-51
2022/08/17 02:32:53;;;;;;;392.67;231.90;;;;;;;;;;4998394;28;20632;-51
2022/08/17 02:35:21;;;;;;;379.25;227.68;;;;;;;;;;5005677;28;20225;-52
2022/08/17 02:37:47;;;;;;;397.45;236.07;;;;;;;;;;5003581;28;20220;-52
2022/08/17 02:40:13;;;;;;;384.55;229.50;;;;;;;;;;5003370;28;20282;-52
2022/08/17 02:42:40;;;;;;;397.30;235.77;;;;;;;;;;5000437;28;20220;-52
2022/08/17 02:45:09;;;;;;;394.33;241.60;;;;;;;;;;4995489;28;20229;-51
2022/08/17 02:47:36;;;;;;;394.88;242.50;;;;;;;;;;4995472;28;20218;-51
2022/08/17 02:50:02;;;;;;;399.42;243.18;;;;;;;;;;4999265;28;20210;-51
2022/08/17 02:52:33;;;;;;;404.05;242.20;;;;;;;;;;4999663;28;20761;-52
2022/08/17 02:54:59;;;;;;;377.02;225.23;;;;;;;;;;4997873;28;20218;-51
2022/08/17 02:57:25;;;;;;;370.40;219.95;;;;;;;;;;5001602;28;20189;-51
2022/08/17 02:59:50;;;;;;;388.33;231.05;;;;;;;;;;5002644;28;20323;-51
2022/08/17 03:02:17;;;;;;;371.02;218.15;;;;;;;;;;4998835;28;20228;-51
2022/08/17 03:04:42;;;;;;;383.05;230.02;;;;;;;;;;5003510;28;20474;-52
2022/08/17 03:07:08;;;;;;;374.80;222.27;;;;;;;;;;5001588;28;20693;-52
2022/08/17 03:09:34;;;;;;;402.13;244.73;;;;;;;;;;5001455;28;20265;-51
2022/08/17 03:12:05;;;;;;;392.13;233.57;;;;;;;;;;4997921;28;20707;-51
2022/08/17 03:14:31;;;;;;;358.45;216.20;;;;;;;;;;5000853;28;20700;-51
2022/08/17 03:16:57;;;;;;;367.25;218.80;;;;;;;;;;4998553;28;20215;-52
2022/08/17 03:19:23;;;;;;;397.98;236.23;;;;;;;;;;4996292;28;20213;-51
2022/08/17 03:21:49;;;;;;;400.13;235.18;;;;;;;;;;5002896;28;20393;-52
2022/08/17 03:24:15;;;;;;;405.88;240.73;;;;;;;;;;4998577;28;20200;-51
2022/08/17 03:26:41;;;;;;;390.95;235.18;;;;;;;;;;4998801;28;20224;-51
2022/08/17 03:29:07;;;;;;;369.00;220.63;;;;;;;;;;5003449;28;20216;-51
2022/08/17 03:31:33;;;;;;;405.27;239.50;;;;;;;;;;5003002;28;20679;-51
2022/08/17 03:33:59;;;;;;;396.67;235.32;;;;;;;;;;4997685;28;20757;-51
2022/08/17 03:36:25;;;;;;;419.13;247.55;;;;;;;;;;4998769;28;20189;-52
2022/08/17 03:38:51;;;;;;;389.67;230.50;;;;;;;;;;5002546;28;20263;-51
2022/08/17 03:41:17;;;;;;;375.45;222.27;;;;;;;;;;5001653;28;20228;-52
2022/08/17 03:43:43;;;;;;;382.33;227.73;;;;;;;;;;5003956;28;20221;-51
2022/08/17 03:57:09;;;;;;;381.65;230.82;;;;;;;;;;4996798;28;20651;-51
2022/08/17 03:59:35;;;;;;;394.58;236.73;;;;;;;;;;4999937;28;20213;-51
2022/08/17 04:02:08;;;;;;;387.77;234.60;;;;;;;;;;4999237;28;20217;-52
2022/08/17 04:04:34;;;;;;;387.45;245.93;;;;;;;;;;5004276;28;20299;-51
2022/08/17 04:07:00;;;;;;;384.08;247.63;;;;;;;;;;5001734;28;20236;-52
2022/08/17 04:09:26;;;;;;;399.15;247.25;;;;;;;;;;4995863;28;20188;-52
2022/08/17 04:11:53;;;;;;;396.50;249.43;;;;;;;;;;5002963;28;20573;-52
2022/08/17 04:14:19;;;;;;;389.90;244.70;;;;;;;;;;5007571;28;20587;-51
2022/08/17 04:16:45;;;;;;;386.67;245.55;;;;;;;;;;5002121;28;20270;-50
2022/08/17 04:19:11;;;;;;;381.50;243.02;;;;;;;;;;4998542;28;20603;-52
2022/08/17 04:21:37;;;;;;;402.45;253.82;;;;;;;;;;5003922;28;20690;-51
2022/08/17 04:24:03;;;;;;;390.70;245.10;;;;;;;;;;5002905;28;20200;-51
2022/08/17 04:26:29;;;;;;;392.00;245.43;;;;;;;;;;4999377;28;20310;-51
2022/08/17 04:28:57;;;;;;;398.15;241.40;;;;;;;;;;4996183;28;20262;-51
2022/08/17 04:31:23;;;;;;;370.30;226.23;;;;;;;;;;5002779;28;20221;-51
2022/08/17 04:33:49;;;;;;;398.23;245.00;;;;;;;;;;4999394;28;20264;-52
2022/08/17 04:36:15;;;;;;;399.50;242.25;;;;;;;;;;4997698;28;20244;-52
2022/08/17 04:38:43;;;;;;;389.65;243.38;;;;;;;;;;4999706;28;20216;-51
2022/08/17 04:43:57;;;;;;;382.75;225.40;;;;;;;;;;4994229;28;20232;-53
2022/08/17 04:46:24;;;;;;;393.52;236.23;;;;;;;;;;5006555;28;20876;-51
2022/08/17 04:48:52;;;;;;;387.70;233.68;;;;;;;;;;4993459;28;20212;-51
2022/08/17 04:51:20;;;;;;;391.73;232.20;;;;;;;;;;4998491;28;20641;-51
2022/08/17 04:53:48;;;;;;;379.45;234.88;;;;;;;;;;4999581;28;20719;-51
2022/08/17 04:56:15;;;;;;;397.38;242.65;;;;;;;;;;4994651;28;20311;-52
2022/08/17 04:58:51;;;;;;;402.60;244.50;;;;;;;;;;4999585;28;20209;-51
2022/08/17 05:01:17;;;;;;;402.33;238.90;;;;;;;;;;4999891;28;20262;-52
2022/08/17 05:03:43;;;;;;;393.98;233.25;;;;;;;;;;4998114;28;20711;-51
2022/08/17 05:06:09;;;;;;;391.38;237.93;;;;;;;;;;5003685;28;20192;-51
2022/08/17 05:08:35;;;;;;;390.38;236.35;;;;;;;;;;5002520;28;20244;-51
2022/08/17 05:11:01;;;;;;;384.88;228.80;;;;;;;;;;5003027;28;20247;-51
2022/08/17 05:13:31;;;;;;;385.92;233.10;;;;;;;;;;4996292;28;20247;-51
2022/08/17 05:15:58;;;;;;;390.25;239.07;;;;;;;;;;5001400;28;20291;-52
2022/08/17 05:18:25;;;;;;;375.02;236.05;;;;;;;;;;4994992;28;20240;-52
2022/08/17 05:20:51;;;;;;;387.20;240.15;;;;;;;;;;4995804;28;20236;-52
2022/08/17 05:23:18;;;;;;;398.70;241.98;;;;;;;;;;4995628;28;20577;-52
2022/08/17 05:25:46;;;;;;;411.30;259.75;;;;;;;;;;4999385;28;20228;-51
2022/08/17 05:28:12;;;;;;;388.83;231.88;;;;;;;;;;5001689;28;20257;-51
2022/08/17 05:30:39;;;;;;;387.90;246.35;;;;;;;;;;5000477;28;20255;-51
2022/08/17 05:33:07;;;;;;;397.40;240.70;;;;;;;;;;5009106;28;20219;-52
2022/08/17 05:35:34;;;;;;;472.55;263.00;;;;;;;;;;4997793;28;20231;-54
2022/08/17 05:38:00;;;;;;;427.70;244.25;;;;;;;;;;4982015;28;20267;-53
2022/08/17 05:40:27;;;;;;;394.58;238.20;;;;;;;;;;4988244;28;20721;-53
2022/08/17 05:43:11;;;;;;;420.08;250.93;;;;;;;;;;4984363;28;20252;-53
2022/08/17 05:45:46;;;;;;;461.45;270.23;;;;;;;;;;4987594;28;20232;-54
2022/08/17 05:48:12;;;;;;;465.98;275.65;;;;;;;;;;4962647;28;20866;-52
2022/08/17 05:50:55;;;;;;;437.50;267.05;;;;;;;;;;4982861;28;20288;-54
2022/08/17 05:53:24;;;;;;;432.25;266.50;;;;;;;;;;4984393;28;20687;-52
2022/08/17 05:55:59;;;;;;;406.02;254.65;;;;;;;;;;4987395;28;20212;-52
2022/08/17 05:58:44;;;;;;;420.88;258.90;;;;;;;;;;4986473;28;20330;-54
2022/08/17 06:01:16;;;;;;;428.92;266.02;;;;;;;;;;4977921;28;20729;-53
2022/08/17 06:03:42;;;;;;;396.42;263.33;;;;;;;;;;4982527;28;20719;-52
2022/08/17 06:06:19;;;;;;;396.77;257.67;;;;;;;;;;4983686;28;20193;-52
2022/08/17 06:08:47;;;;;;;412.20;268.60;;;;;;;;;;4991548;28;20746;-50
2022/08/17 06:11:22;;;;;;;434.65;283.60;;;;;;;;;;4988874;28;20247;-51
2022/08/17 06:13:57;;;;;;;397.65;260.52;;;;;;;;;;4995467;28;20323;-49
2022/08/17 06:16:25;;;;;;;482.73;309.38;;;;;;;;;;4989208;28;20224;-49
2022/08/17 06:19:03;;;;;;;383.20;254.20;;;;;;;;;;4980043;28;20358;-49
2022/08/17 06:21:33;;;;;;;393.02;253.02;;;;;;;;;;4987957;28;20196;-52
2022/08/17 06:24:02;;;;;;;424.33;266.48;;;;;;;;;;4983986;28;20351;-49
2022/08/17 06:26:31;;;;;;;387.58;243.15;;;;;;;;;;4981365;28;20284;-51
2022/08/17 06:29:07;;;;;;;388.60;249.23;;;;;;;;;;4984836;28;20220;-49
2022/08/17 06:31:35;;;;;;;467.52;283.95;;;;;;;;;;4986383;28;20597;-50
2022/08/17 06:34:02;;;;;;;461.42;297.40;;;;;;;;;;4987327;28;20321;-49
2022/08/17 06:36:34;;;;;;;377.55;245.95;;;;;;;;;;4990509;28;20194;-50
2022/08/17 06:39:03;;;;;;;426.48;287.95;;;;;;;;;;4994387;28;20254;-51
2022/08/17 06:41:42;;;;;;;402.52;264.65;;;;;;;;;;4983157;28;20296;-54
2022/08/17 06:44:12;;;;;;;544.00;348.73;;;;;;;;;;4998092;28;20251;-52
2022/08/17 06:46:47;;;;;;;454.05;296.90;;;;;;;;;;4987801;28;20338;-51
2022/08/17 06:49:28;;;;;;;416.23;280.42;;;;;;;;;;4991756;28;20509;-52
2022/08/17 06:52:02;;;;;;;399.65;276.10;;;;;;;;;;4989826;28;20431;-51
2022/08/17 06:54:46;;;;;;;407.98;280.88;;;;;;;;;;4979422;28;20200;-53
2022/08/17 06:57:15;;;;;;;445.75;299.95;;;;;;;;;;4983060;28;20217;-52
2022/08/17 06:59:49;;;;;;;411.67;279.20;;;;;;;;;;4986326;28;20239;-55
2022/08/17 07:02:18;;;;;;;393.08;261.33;;;;;;;;;;4983090;28;20374;-51
2022/08/17 07:04:44;;;;;;;442.52;300.08;;;;;;;;;;4975056;28;20757;-55
2022/08/17 07:09:57;;;;;;;438.92;292.15;;;;;;;;;;4982874;28;20330;-52
2022/08/17 07:12:37;;;;;;;513.72;317.65;;;;;;;;;;4980662;28;22727;-55
2022/08/17 07:15:10;;;;;;;447.92;298.48;;;;;;;;;;4978800;28;22705;-56
2022/08/17 07:17:37;;;;;;;490.40;312.10;;;;;;;;;;4975107;28;20217;-53
2022/08/17 07:20:07;;;;;;;416.95;283.73;;;;;;;;;;4977474;28;20303;-54
2022/08/17 07:22:45;;;;;;;468.10;312.77;;;;;;;;;;4981907;28;20267;-52
2022/08/17 07:25:13;;;;;;;403.02;289.95;;;;;;;;;;4991724;28;20209;-55
2022/08/17 07:27:39;;;;;;;396.85;279.88;;;;;;;;;;4991003;28;20225;-54
2022/08/17 07:30:11;;;;;;;400.40;272.10;;;;;;;;;;4996261;28;20633;-53
2022/08/17 07:32:41;;;;;;;433.58;293.23;;;;;;;;;;4982534;28;20282;-53
2022/08/17 07:35:10;;;;;;;386.95;267.70;;;;;;;;;;4994279;28;20358;-54
2022/08/17 07:37:41;;;;;;;418.75;281.23;;;;;;;;;;4991758;28;20311;-55
2022/08/17 07:40:16;;;;;;;405.77;290.02;;;;;;;;;;4988712;28;20217;-54
2022/08/17 07:42:42;;;;;;;382.58;274.80;;;;;;;;;;4988594;28;20221;-54
2022/08/17 07:48:17;;;;;;;376.80;258.80;;;;;;;;;;4994721;28;20466;-55
2022/08/17 07:50:39;;;;;;;391.73;273.08;;;;;;;;;;4991929;28;20248;-54
2022/08/17 07:53:16;;;;;;;401.02;281.08;;;;;;;;;;4992466;28;20272;-53
2022/08/17 07:55:44;;;;;;;422.20;292.23;;;;;;;;;;4988387;28;20237;-53
2022/08/17 07:58:14;;;;;;;394.83;275.30;;;;;;;;;;4988876;28;20301;-53
2022/08/17 08:00:40;;;;;;;396.60;273.92;;;;;;;;;;4992438;28;20217;-53
2022/08/17 08:03:30;;;;;;;394.25;274.65;;;;;;;;;;4992783;28;20278;-54
2022/08/17 08:06:00;;;;;;;386.20;280.02;;;;;;;;;;4995787;28;20213;-52
2022/08/17 08:08:29;;;;;;;400.10;302.15;;;;;;;;;;4990947;28;20228;-55
2022/08/17 08:11:04;;;;;;;395.35;298.83;;;;;;;;;;4990426;28;20460;-53
2022/08/17 08:13:31;;;;;;;395.80;297.40;;;;;;;;;;4995860;28;20318;-53
2022/08/17 08:16:16;;;;;;;412.63;312.83;;;;;;;;;;4986642;28;20236;-55
2022/08/17 08:18:44;;;;;;;399.63;307.65;;;;;;;;;;4993738;28;20213;-53
2022/08/17 08:21:13;;;;;;;419.88;278.92;;;;;;;;;;5009857;23;20596;-51
2022/08/17 08:23:45;;;;;;;392.33;267.77;;;;;;;;;;5007517;28;20219;-51
2022/08/17 08:26:12;;;;;;;386.60;270.90;;;;;;;;;;5009879;28;20585;-51
2022/08/17 08:28:43;;;;;;;406.42;291.83;;;;;;;;;;5008616;28;20232;-51
2022/08/17 08:31:23;;;;;;;391.85;278.50;;;;;;;;;;5009707;28;20220;-51
2022/08/17 08:33:55;;;;;;;379.20;277.15;;;;;;;;;;5009365;28;20216;-51
2022/08/17 08:36:29;;;;;;;400.10;281.38;;;;;;;;;;5009846;28;20161;-50
2022/08/17 08:39:00;;;;;;;377.90;278.88;;;;;;;;;;5009577;28;20513;-51
2022/08/17 08:41:32;;;;;;;371.42;271.25;;;;;;;;;;5008609;28;20205;-52
2022/08/17 08:43:59;;;;;;;397.80;281.48;;;;;;;;;;5009409;28;20224;-52
2022/08/17 08:46:44;;;;;;;398.67;286.00;;;;;;;;;;5009614;28;20255;-52
2022/08/17 08:49:25;;;;;;;383.92;288.30;;;;;;;;;;5007474;28;20233;-51
2022/08/17 08:51:55;;;;;;;402.38;307.88;;;;;;;;;;5009371;28;20221;-52
2022/08/17 08:54:21;;;;;;;401.83;305.23;;;;;;;;;;5009357;28;20189;-52
2022/08/17 08:56:47;;;;;;;395.70;299.20;;;;;;;;;;5009237;28;20219;-52
2022/08/17 08:59:16;;;;;;;367.73;278.63;;;;;;;;;;5009070;28;20716;-52
2022/08/17 09:01:51;;;;;;;393.02;291.40;;;;;;;;;;5009660;28;20556;-52
2022/08/17 09:04:27;;;;;;;396.27;296.67;;;;;;;;;;5008607;28;20294;-52
2022/08/17 09:06:58;;;;;;;390.70;301.45;;;;;;;;;;5009071;28;20236;-52
2022/08/17 09:09:33;;;;;;;396.75;302.23;;;;;;;;;;5009508;28;20170;-52
2022/08/17 09:12:20;;;;;;;400.42;316.48;;;;;;;;;;5009365;28;20300;-52
2022/08/17 09:14:49;;;;;;;367.67;300.70;;;;;;;;;;5009344;28;20573;-52
2022/08/17 09:17:35;;;;;;;393.02;303.80;;;;;;;;;;5008866;28;20249;-52
2022/08/17 09:20:31;;;;;;;374.33;294.05;;;;;;;;;;5008604;28;20714;-52
2022/08/17 09:23:01;;;;;;;380.40;300.48;;;;;;;;;;5008175;28;20244;-52
2022/08/17 09:25:29;;;;;;;385.67;278.85;;;;;;;;;;5008479;28;20220;-52
2022/08/17 09:28:02;;;;;;;396.52;285.30;;;;;;;;;;5009046;28;20225;-52
2022/08/17 09:30:35;;;;;;;357.20;274.23;;;;;;;;;;5009585;28;20185;-52
2022/08/17 09:33:03;;;;;;;388.98;283.60;;;;;;;;;;5008917;28;20213;-52
2022/08/17 09:35:33;;;;;;;380.45;285.75;;;;;;;;;;5008824;28;20220;-51
2022/08/17 09:37:59;;;;;;;370.30;278.92;;;;;;;;;;5009348;28;20306;-52
2022/08/17 09:40:32;;;;;;;373.08;287.67;;;;;;;;;;5015342;28;20224;-52
2022/08/17 09:42:58;;;;;;;395.67;296.50;;;;;;;;;;5015756;28;20219;-52
2022/08/17 09:45:30;;;;;;;373.40;286.73;;;;;;;;;;5015529;28;20176;-52
2022/08/17 09:47:59;;;;;;;385.88;293.13;;;;;;;;;;5015141;28;20220;-52
2022/08/17 09:50:35;;;;;;;378.73;298.65;;;;;;;;;;5014613;28;20216;-52
2022/08/17 09:53:01;;;;;;;383.00;294.27;;;;;;;;;;5015019;28;20227;-52
2022/08/17 09:55:37;;;;;;;416.20;308.80;;;;;;;;;;5015137;28;20212;-52
2022/08/17 09:58:10;;;;;;;371.52;282.20;;;;;;;;;;5015430;28;20208;-52
2022/08/17 10:00:39;;;;;;;379.60;289.27;;;;;;;;;;5015343;28;20146;-51
2022/08/17 10:03:15;;;;;;;365.65;283.10;;;;;;;;;;5015530;28;20193;-52
2022/08/17 10:05:46;;;;;;;392.48;296.48;;;;;;;;;;5015229;28;20216;-52
2022/08/17 10:08:15;;;;;;;372.23;287.45;;;;;;;;;;5014872;28;20315;-52
2022/08/17 10:11:04;;;;;;;396.02;305.67;;;;;;;;;;5015075;28;20220;-52
2022/08/17 10:13:39;;;;;;;400.77;303.38;;;;;;;;;;5014902;28;20311;-53
2022/08/17 10:16:11;;;;;;;391.67;321.27;;;;;;;;;;5015137;28;20272;-52
2022/08/17 10:18:45;;;;;;;405.75;328.40;;;;;;;;;;5015520;28;20675;-52
2022/08/17 10:26:53;;;;;;;380.30;303.67;;;;;;;;;;5015158;28;20263;-52
2022/08/17 10:29:26;;;;;;;379.60;316.98;;;;;;;;;;5015593;28;20587;-52
2022/08/17 10:31:58;;;;;;;395.00;323.05;;;;;;;;;;5015816;28;20684;-52
2022/08/17 10:34:27;;;;;;;377.73;316.55;;;;;;;;;;5015382;28;20736;-52
2022/08/17 10:37:08;;;;;;;390.95;323.45;;;;;;;;;;5015588;28;20299;-54
2022/08/17 10:39:41;;;;;;;387.35;329.65;;;;;;;;;;5015230;28;20641;-52
2022/08/17 10:42:28;;;;;;;402.63;333.98;;;;;;;;;;5015842;28;20602;-52
2022/08/17 10:45:01;;;;;;;402.38;334.17;;;;;;;;;;5014609;28;20205;-53
2022/08/17 10:47:47;;;;;;;401.13;333.13;;;;;;;;;;5014282;28;20224;-52
2022/08/17 10:50:33;;;;;;;396.05;312.23;;;;;;;;;;5012729;28;20216;-52
2022/08/17 10:52:59;;;;;;;409.05;338.67;;;;;;;;;;5010902;28;20303;-51
2022/08/17 10:55:25;;;;;;;394.23;312.38;;;;;;;;;;5011715;28;20296;-52
2022/08/17 10:57:53;;;;;;;381.15;309.65;;;;;;;;;;5011404;28;20273;-52
2022/08/17 11:00:28;;;;;;;386.00;311.92;;;;;;;;;;5011953;28;20531;-52
2022/08/17 11:02:56;;;;;;;402.33;311.63;;;;;;;;;;5011106;28;20216;-52
2022/08/17 11:05:39;;;;;;;386.10;307.20;;;;;;;;;;5011297;28;20213;-51
2022/08/17 11:08:24;;;;;;;389.23;308.80;;;;;;;;;;5011316;28;20312;-52
2022/08/17 11:11:08;;;;;;;403.50;318.23;;;;;;;;;;5011340;28;20625;-52
2022/08/17 11:13:51;;;;;;;383.45;308.73;;;;;;;;;;5011405;28;20435;-52
2022/08/17 11:16:38;;;;;;;386.42;315.10;;;;;;;;;;5011581;28;20697;-52
2022/08/17 11:19:09;;;;;;;358.73;294.20;;;;;;;;;;5010952;28;20224;-52
2022/08/17 11:21:41;;;;;;;399.38;321.15;;;;;;;;;;5011558;28;20635;-52
2022/08/17 11:24:10;;;;;;;409.58;320.60;;;;;;;;;;5011083;28;20263;-52
2022/08/17 11:26:37;;;;;;;383.25;312.83;;;;;;;;;;5010319;28;20474;-52
2022/08/17 11:29:16;;;;;;;371.45;310.70;;;;;;;;;;5011166;28;20209;-53
2022/08/17 11:31:43;;;;;;;379.30;318.50;;;;;;;;;;5011117;28;20235;-53
2022/08/17 11:34:12;;;;;;;375.23;318.25;;;;;;;;;;5010318;28;20224;-52
2022/08/17 11:36:38;;;;;;;385.08;329.88;;;;;;;;;;5007858;28;20716;-52
2022/08/17 11:39:16;;;;;;;415.55;349.10;;;;;;;;;;5008019;28;20303;-53
2022/08/17 11:41:42;;;;;;;378.73;332.35;;;;;;;;;;5010870;28;20220;-52
2022/08/17 11:44:25;;;;;;;380.27;336.38;;;;;;;;;;5010878;28;20243;-52
2022/08/17 11:52:41;;;;;;;404.02;359.88;;;;;;;;;;5010447;28;20220;-52
2022/08/17 11:55:12;;;;;;;385.70;343.13;;;;;;;;;;5010541;28;20205;-52
2022/08/17 11:57:41;;;;;;;411.52;367.25;;;;;;;;;;5010474;28;20635;-52
2022/08/17 12:00:11;;;;;;;397.23;354.73;;;;;;;;;;5010956;28;20196;-52
2022/08/17 12:02:42;;;;;;;406.17;361.05;;;;;;;;;;5008235;28;20776;-52
2022/08/17 12:05:11;;;;;;;409.45;346.40;;;;;;;;;;5010171;28;20968;-52
2022/08/17 12:07:42;;;;;;;387.58;343.92;;;;;;;;;;5008548;28;20738;-52
2022/08/17 12:10:11;;;;;;;403.90;354.70;;;;;;;;;;5024061;28;20215;-53
2022/08/17 12:12:42;;;;;;;397.73;351.98;;;;;;;;;;5030015;28;20825;-52
2022/08/17 12:15:13;;;;;;;405.38;343.88;;;;;;;;;;5030205;28;20149;-53
2022/08/17 12:17:39;;;;;;;382.83;327.75;;;;;;;;;;5028464;28;20334;-51
2022/08/17 12:20:26;;;;;;;390.05;339.45;;;;;;;;;;5029525;28;20307;-52
2022/08/17 12:22:53;;;;;;;382.60;338.20;;;;;;;;;;5029444;28;20240;-52
2022/08/17 12:25:34;;;;;;;407.50;341.52;;;;;;;;;;5029424;28;20231;-52
2022/08/17 12:28:01;;;;;;;403.48;336.40;;;;;;;;;;5027883;28;20220;-52
2022/08/17 12:30:27;;;;;;;391.02;330.70;;;;;;;;;;5029642;28;20212;-51
2022/08/17 12:32:53;;;;;;;398.88;339.13;;;;;;;;;;5028930;28;20227;-52
2022/08/17 12:35:33;;;;;;;399.90;339.58;;;;;;;;;;5029516;28;20223;-52
2022/08/17 12:38:00;;;;;;;380.40;336.88;;;;;;;;;;5028963;28;20528;-52
2022/08/17 12:40:28;;;;;;;395.75;353.98;;;;;;;;;;5029106;28;20218;-53
2022/08/17 12:42:56;;;;;;;383.05;340.80;;;;;;;;;;5029588;28;20236;-53
2022/08/17 12:45:24;;;;;;;391.05;348.52;;;;;;;;;;5029663;28;20169;-52
2022/08/17 12:48:01;;;;;;;390.58;347.55;;;;;;;;;;5027669;28;20227;-52
2022/08/17 12:50:27;;;;;;;397.60;351.55;;;;;;;;;;5028604;28;20571;-52
2022/08/17 12:52:54;;;;;;;390.10;346.33;;;;;;;;;;5029107;28;20216;-53
2022/08/17 12:55:24;;;;;;;380.70;339.75;;;;;;;;;;5029013;28;20211;-52
2022/08/17 12:57:52;;;;;;;393.02;350.38;;;;;;;;;;5028905;28;20209;-52
2022/08/17 13:00:42;;;;;;;402.65;358.92;;;;;;;;;;5029483;28;20196;-52
2022/08/17 13:03:18;;;;;;;407.27;363.88;;;;;;;;;;5029074;28;20219;-52
2022/08/17 13:05:55;;;;;;;411.25;366.85;;;;;;;;;;5028617;28;20200;-51
2022/08/17 13:08:29;;;;;;;411.45;368.10;;;;;;;;;;5028657;28;20254;-53
2022/08/17 13:10:56;;;;;;;411.13;367.50;;;;;;;;;;5029316;28;20230;-53
2022/08/17 13:13:25;;;;;;;419.35;374.45;;;;;;;;;;5028784;28;20565;-52
2022/08/17 13:15:52;;;;;;;421.42;377.15;;;;;;;;;;5028616;28;20207;-52
2022/08/17 13:18:30;;;;;;;438.27;390.67;;;;;;;;;;5026333;28;20176;-52
2022/08/17 13:20:58;;;;;;;424.10;380.05;;;;;;;;;;5028437;28;20247;-53
2022/08/17 13:23:27;;;;;;;422.13;379.77;;;;;;;;;;5028539;28;20216;-52
2022/08/17 13:25:54;;;;;;;418.13;377.17;;;;;;;;;;5028861;28;20224;-52
2022/08/17 13:28:21;;;;;;;430.70;387.35;;;;;;;;;;5028381;28;20331;-53
2022/08/17 13:30:47;;;;;;;446.77;401.45;;;;;;;;;;5028462;28;20220;-52
2022/08/17 13:33:24;;;;;;;433.67;391.58;;;;;;;;;;5029186;28;20196;-51
2022/08/17 13:35:50;;;;;;;452.27;407.80;;;;;;;;;;5028625;28;20295;-52
2022/08/17 13:38:38;;;;;;;466.83;422.70;;;;;;;;;;5028707;28;20266;-52
2022/08/17 13:41:06;;;;;;;487.13;438.80;;;;;;;;;;5026889;28;20550;-52
2022/08/17 13:43:47;;;;;;;505.05;452.98;;;;;;;;;;5025578;28;20216;-52
2022/08/17 13:46:20;;;;;;;492.85;443.30;;;;;;;;;;5024416;28;20218;-52
2022/08/17 13:48:55;;;;;;;482.48;434.33;;;;;;;;;;5024144;28;20216;-52
2022/08/17 13:51:45;;;;;;;473.10;426.25;;;;;;;;;;5023984;28;20656;-52
2022/08/17 13:54:23;;;;;;;465.35;420.30;;;;;;;;;;5006536;28;20220;-52
2022/08/17 13:56:53;;;;;;;448.52;406.63;;;;;;;;;;5008936;28;20214;-51
2022/08/17 13:59:27;;;;;;;456.13;411.30;;;;;;;;;;5009221;28;20217;-52
2022/08/17 14:01:53;;;;;;;451.60;407.42;;;;;;;;;;5008576;28;20209;-52
2022/08/17 14:04:21;;;;;;;438.65;393.88;;;;;;;;;;5008404;28;20216;-51
2022/08/17 14:07:05;;;;;;;441.95;397.33;;;;;;;;;;5008245;28;20220;-52
2022/08/17 14:09:34;;;;;;;465.45;416.73;;;;;;;;;;5007994;28;20177;-52
2022/08/17 14:12:02;;;;;;;455.23;410.92;;;;;;;;;;5008801;28;20200;-52
2022/08/17 14:14:28;;;;;;;469.02;423.55;;;;;;;;;;5008605;28;20602;-52
2022/08/17 14:16:55;;;;;;;450.27;408.17;;;;;;;;;;5008454;28;20221;-52
2022/08/17 14:19:21;;;;;;;467.73;424.27;;;;;;;;;;5008317;28;20212;-52
2022/08/17 14:21:47;;;;;;;495.88;450.40;;;;;;;;;;5019193;23;20290;-52
2022/08/17 14:24:16;;;;;;;526.17;477.75;;;;;;;;;;4973191;28;20656;-52
2022/08/17 14:26:43;;;;;;;528.50;477.90;;;;;;;;;;4969978;28;20248;-51
2022/08/17 14:29:09;;;;;;;538.97;488.60;;;;;;;;;;4967883;28;20319;-52
2022/08/17 14:31:35;;;;;;;549.25;498.30;;;;;;;;;;4962679;28;20328;-50
2022/08/17 14:34:01;;;;;;;551.15;500.55;;;;;;;;;;4964678;28;20218;-50
2022/08/17 14:36:27;;;;;;;534.03;485.70;;;;;;;;;;4968470;28;20178;-50
2022/08/17 14:38:53;;;;;;;523.40;474.70;;;;;;;;;;4972070;28;20571;-48